International Virtual Aviation Organisation

Eastern Europe and Northern Asia MCD

 
ULLI 201000Z 10007G13MPS 060V150 CAVOK 12/M09 Q1020 RMK WS R10R R10R/090060 NOSIG
QNH:(hPa/inHg/mmHg)1020 / 30.12 / 765
QFE:(hPa/inHg/mmHg)1017 / 30.03 / 763
Temperature12
Dew Point-9
Visibility> 10000
WeatherCAVOK
Cloud Cover
Transition Altitude3500 ft.
Transition LevelFL50
SQUAWK